Adrian, Ohio
Current Conditions -  °F | °C
As of 6:53 PM on Monday 22 Dec 2014 (Local Time) from KFDY Reporting Station
Overcast Overcast  
Wind Chill: 33°   Ceiling: 9000
Heat Index: 40°   Visibility: 8mi
Dew Point: 33°   Wind: 10mph
Humidity: 77%   Direction: 90°E
Pressure: 29.85"   Gusts: NA
Location:  41°N, 83.32°W
Report Text: KFDY 222353Z AUTO 09009KT 8SM OVC090 04/01 A2985 RMK AO2 SLP113 T00440006 10050 20039 56009
Loading
Personal Weather Stations






























Interactive Weather Map New forecast layout! Learn more

10-Day Weather Forecast

Advertisements
Track Severe Weather on mobile